Airport View

Enter AWOS ICAO identifier for current METAR.

ex. KFNL

KRYW 210015Z AUTO 13010G17KT 090V160 10SM CLR 29/21 A2996 RMK AO2 T02900211

21 Sep 2019 00:37

Frequency: 119.375

Phone: 512-267-1365

Other Area AWOS: KATT - KGTU - KBMQ - KDZB

TAF KAUS 202340Z 2100/2206 14016G26KT P6SM SCT060 BKN200 FM210400 16008KT P6SM FEW020 FM210800 15007KT P6SM SCT009 BKN012 FM211600 14011G21KT P6SM VCSH SCT035 FM220200 16007KT P6SM FEW030